createdAt,value
2023-05-02T00:00:33.938Z,4.85
2023-05-02T00:05:35.361Z,5.50
2023-05-02T00:10:36.892Z,7.95
2023-05-02T00:15:38.222Z,6.75
2023-05-02T00:20:40.872Z,6.13
2023-05-02T00:25:46.123Z,8.07
2023-05-02T00:30:47.565Z,9.52
2023-05-02T00:35:48.915Z,8.05
2023-05-02T00:40:53.493Z,8.20
2023-05-02T00:45:55.339Z,8.02
2023-05-02T00:50:57.379Z,9.75
2023-05-02T00:55:59.344Z,6.72
2023-05-02T01:01:19.626Z,7.63
2023-05-02T01:06:39.611Z,10.98
2023-05-02T01:12:05.624Z,7.85
2023-05-02T01:17:11.217Z,8.68
2023-05-02T01:22:14.398Z,8.35
2023-05-02T01:27:28.084Z,11.35
2023-05-02T01:32:33.434Z,12.25
2023-05-02T01:37:38.100Z,13.68
2023-05-02T01:42:41.274Z,12.63
2023-05-02T01:47:44.683Z,14.05
2023-05-02T01:52:47.466Z,14.60
2023-05-02T01:57:50.627Z,13.77
2023-05-02T02:02:55.758Z,16.50
2023-05-02T02:07:58.442Z,20.20
2023-05-02T02:13:26.364Z,16.13
2023-05-02T02:18:29.408Z,16.63
2023-05-02T02:23:33.752Z,19.10
2023-05-02T02:28:35.155Z,16.98
2023-05-02T02:33:36.720Z,19.77
2023-05-02T02:38:50.598Z,18.40
2023-05-02T02:44:26.010Z,23.95
2023-05-02T02:50:09.595Z,27.60
2023-05-02T02:55:25.031Z,25.80
2023-05-02T03:00:28.663Z,25.08
2023-05-02T03:05:32.845Z,23.42
2023-05-02T03:10:34.182Z,26.88
2023-05-02T03:15:59.087Z,27.92
2023-05-02T03:21:01.007Z,27.52
2023-05-02T03:26:02.884Z,27.77
2023-05-02T03:31:04.415Z,28.00
2023-05-02T03:36:07.084Z,25.60
2023-05-02T03:41:08.440Z,27.70
2023-05-02T03:46:11.500Z,19.50
2023-05-02T03:51:13.334Z,23.65
2023-05-02T03:56:20.033Z,23.40
2023-05-02T04:01:21.455Z,21.98
2023-05-02T04:06:22.906Z,24.70
2023-05-02T04:11:26.183Z,26.00
2023-05-02T04:16:27.541Z,24.00
2023-05-02T04:21:28.889Z,22.27
2023-05-02T04:26:30.330Z,23.70
2023-05-02T04:31:32.767Z,25.98
2023-05-02T04:36:34.625Z,29.30
2023-05-02T05:03:33.589Z,42.20
2023-05-02T05:08:35.110Z,35.15
2023-05-02T05:13:36.431Z,34.83
2023-05-02T05:18:40.784Z,34.60
2023-05-02T05:23:45.916Z,40.08
2023-05-02T05:28:47.347Z,38.78
2023-05-02T05:33:48.712Z,36.00
2023-05-02T05:38:50.828Z,41.28
2023-05-02T05:43:52.234Z,38.95
2023-05-02T05:48:53.596Z,38.80
2023-05-02T05:53:55.448Z,40.30
2023-05-02T05:58:56.817Z,36.78
2023-05-02T06:03:58.999Z,41.50
2023-05-02T06:09:00.903Z,35.60
2023-05-02T06:14:02.358Z,33.53
2023-05-02T06:19:03.799Z,34.60
2023-05-02T06:24:05.520Z,38.03
2023-05-02T06:29:06.967Z,28.17
2023-05-02T06:34:08.289Z,31.35
2023-05-02T06:39:09.630Z,31.08
2023-05-02T06:44:10.969Z,32.15
2023-05-02T06:49:12.528Z,29.15
2023-05-02T06:54:15.696Z,26.60
2023-05-02T06:59:17.140Z,26.65
2023-05-02T07:04:18.518Z,25.95
2023-05-02T07:09:19.923Z,26.40
2023-05-02T07:14:21.698Z,24.77
2023-05-02T07:19:23.043Z,23.67
2023-05-02T07:24:24.371Z,25.92
2023-05-02T07:29:25.980Z,25.05
2023-05-02T07:34:27.338Z,25.45
2023-05-02T07:39:28.947Z,24.98
2023-05-02T07:44:30.294Z,28.17
2023-05-02T07:49:31.638Z,27.33
2023-05-02T07:54:32.984Z,30.10
2023-05-02T07:59:34.419Z,21.95
2023-05-02T08:04:35.859Z,24.50
2023-05-02T08:09:37.245Z,22.10
2023-05-02T08:14:38.580Z,19.20
2023-05-02T08:19:39.930Z,24.58
2023-05-02T08:24:41.253Z,22.65
2023-05-02T08:29:42.602Z,26.17
2023-05-02T08:34:43.927Z,27.98
2023-05-02T08:39:45.329Z,21.13
2023-05-02T08:44:48.343Z,23.23
2023-05-02T08:49:50.063Z,26.05
2023-05-02T08:54:52.226Z,20.35
2023-05-02T08:59:53.745Z,23.30
2023-05-02T09:04:59.634Z,23.23
2023-05-02T09:10:01.086Z,28.13
2023-05-02T09:15:19.869Z,21.92
2023-05-02T09:20:22.344Z,22.63
2023-05-02T09:25:23.850Z,22.60
2023-05-02T09:30:26.511Z,18.60
2023-05-02T09:35:28.007Z,15.93
2023-05-02T09:40:30.126Z,18.50
2023-05-02T09:45:31.541Z,15.68
2023-05-02T09:50:37.747Z,11.82
2023-05-02T09:55:39.527Z,10.70
2023-05-02T10:00:45.029Z,13.45
2023-05-02T10:05:47.779Z,15.07
2023-05-02T10:10:57.462Z,12.05
2023-05-02T10:16:04.235Z,11.02
2023-05-02T10:21:11.818Z,9.98
2023-05-02T10:26:16.131Z,7.20
2023-05-02T10:31:18.451Z,3.70
2023-05-02T10:36:22.353Z,3.22
2023-05-02T10:41:26.841Z,4.70
2023-05-02T10:46:41.147Z,4.05
2023-05-02T10:51:43.463Z,4.38
2023-05-02T10:57:03.171Z,3.25
2023-05-02T11:02:28.036Z,3.28
2023-05-02T11:07:34.535Z,3.88
2023-05-02T11:12:52.997Z,1.63
2023-05-02T11:18:07.226Z,1.63
2023-05-02T11:23:15.239Z,1.77
2023-05-02T11:28:38.630Z,4.63
2023-05-02T11:33:40.212Z,4.20
2023-05-02T11:38:41.647Z,1.40
2023-05-02T11:43:43.018Z,3.20
2023-05-02T11:48:45.053Z,1.30
2023-05-02T11:53:46.414Z,1.58
2023-05-02T11:58:58.815Z,1.67
2023-05-02T12:04:10.368Z,2.78
2023-05-02T12:09:19.152Z,2.25
2023-05-02T12:14:32.517Z,2.10
2023-05-02T12:19:34.800Z,3.25
2023-05-02T12:24:36.583Z,3.13
2023-05-02T12:29:45.425Z,3.60
2023-05-02T12:34:46.801Z,3.58
2023-05-02T12:39:48.175Z,2.75
2023-05-02T12:44:54.344Z,3.17
2023-05-02T12:49:57.874Z,3.57
2023-05-02T12:55:18.574Z,5.35
2023-05-02T13:00:20.001Z,4.93
2023-05-02T13:05:21.476Z,2.08
2023-05-02T13:10:24.804Z,2.17
2023-05-02T13:15:26.168Z,2.17
2023-05-02T13:20:27.597Z,2.50
2023-05-02T13:25:29.004Z,3.38
2023-05-02T13:30:30.718Z,4.30
2023-05-02T13:35:33.401Z,2.92
2023-05-02T13:40:36.582Z,2.92
2023-05-02T13:45:37.921Z,3.58
2023-05-02T13:50:39.395Z,3.72
2023-05-02T13:55:40.908Z,1.38
2023-05-02T14:00:42.541Z,2.92
2023-05-02T14:05:43.945Z,2.15
2023-05-02T14:10:45.382Z,2.13
2023-05-02T14:15:46.820Z,4.28
2023-05-02T14:20:48.189Z,2.55
2023-05-02T14:25:49.567Z,3.17
2023-05-02T14:30:51.332Z,2.78
2023-05-02T14:35:52.715Z,2.17
2023-05-02T14:40:54.930Z,2.47
2023-05-02T14:45:57.550Z,1.88
2023-05-02T14:51:00.660Z,3.33
2023-05-02T14:56:02.105Z,2.97
2023-05-02T15:01:03.540Z,3.20
2023-05-02T15:06:05.124Z,2.65
2023-05-02T15:11:06.740Z,4.88
2023-05-02T15:16:10.524Z,5.05
2023-05-02T15:21:11.972Z,3.20
2023-05-02T15:26:13.366Z,5.25
2023-05-02T15:31:14.849Z,8.02
2023-05-02T15:36:16.775Z,3.53
2023-05-02T15:41:18.110Z,3.42
2023-05-02T15:46:19.508Z,3.42
2023-05-02T15:51:20.840Z,3.25
2023-05-02T15:56:22.739Z,4.72
2023-05-02T16:01:24.339Z,3.53
2023-05-02T16:06:27.524Z,3.10
2023-05-02T16:11:28.944Z,3.45
2023-05-02T16:16:30.387Z,4.43
2023-05-02T16:21:31.933Z,5.45
2023-05-02T16:26:33.889Z,4.70
2023-05-02T16:31:35.336Z,4.05
2023-05-02T16:36:36.759Z,6.70
2023-05-02T16:41:38.194Z,13.55
2023-05-02T16:46:39.551Z,3.45
2023-05-02T16:51:40.887Z,2.90
2023-05-02T16:56:42.676Z,4.95
2023-05-02T17:01:44.412Z,4.35
2023-05-02T17:06:45.814Z,4.22
2023-05-02T17:11:47.253Z,15.25
2023-05-02T17:16:48.712Z,4.80
2023-05-02T17:21:51.751Z,2.03
2023-05-02T17:26:53.179Z,3.20
2023-05-02T17:31:57.320Z,4.00
2023-05-02T17:36:58.962Z,2.38
2023-05-02T17:42:01.094Z,5.28
2023-05-02T17:47:03.347Z,2.63
2023-05-02T17:52:05.616Z,2.35
2023-05-02T17:57:07.003Z,3.92
2023-05-02T18:02:10.415Z,2.75
2023-05-02T18:07:11.927Z,2.45
2023-05-02T18:12:13.358Z,5.25
2023-05-02T18:17:14.886Z,2.10
2023-05-02T18:22:19.739Z,3.85
2023-05-02T18:27:21.293Z,5.00
2023-05-02T18:32:22.677Z,2.42
2023-05-02T18:37:31.062Z,2.78
2023-05-02T18:42:32.468Z,4.03
2023-05-02T18:47:34.922Z,5.35
2023-05-02T18:52:36.583Z,4.55
2023-05-02T18:57:38.052Z,2.72
2023-05-02T19:02:39.539Z,4.22
2023-05-02T19:07:41.003Z,3.30
2023-05-02T19:12:43.870Z,2.97
2023-05-02T19:17:45.566Z,5.60
2023-05-02T19:22:47.359Z,6.85
2023-05-02T19:27:49.800Z,3.95
2023-05-02T19:32:51.256Z,3.33
2023-05-02T19:37:52.664Z,5.57
2023-05-02T19:42:54.058Z,3.67
2023-05-02T19:47:56.294Z,5.18
2023-05-02T19:52:57.945Z,6.78
2023-05-02T19:58:00.554Z,4.43
2023-05-02T20:03:02.160Z,3.20
2023-05-02T20:08:03.750Z,5.32
2023-05-02T20:13:05.498Z,3.97
2023-05-02T20:18:06.922Z,10.52
2023-05-02T20:23:08.321Z,4.22
2023-05-02T20:28:10.293Z,7.65
2023-05-02T20:33:16.169Z,4.68
2023-05-02T20:38:20.336Z,5.83
2023-05-02T20:43:22.800Z,4.28
2023-05-02T20:48:24.124Z,4.03
2023-05-02T20:53:25.480Z,6.97
2023-05-02T20:58:26.857Z,5.10
2023-05-02T21:03:28.465Z,3.67
2023-05-02T21:08:29.867Z,5.68
2023-05-02T21:13:31.241Z,7.65
2023-05-02T21:18:32.569Z,5.32
2023-05-02T21:23:34.452Z,6.30
2023-05-02T21:28:38.839Z,6.40
2023-05-02T21:33:41.471Z,8.52
2023-05-02T21:38:42.929Z,9.77
2023-05-02T21:43:44.921Z,3.85
2023-05-02T21:48:46.307Z,9.13
2023-05-02T21:53:47.726Z,5.50
2023-05-02T21:58:51.171Z,7.97
2023-05-02T22:03:52.520Z,6.45
2023-05-02T22:08:53.833Z,7.05
2023-05-02T22:13:55.161Z,6.38
2023-05-02T22:18:57.819Z,6.60
2023-05-02T22:23:59.396Z,7.97
2023-05-02T22:29:00.747Z,7.32
2023-05-02T22:34:02.066Z,10.65
2023-05-02T22:39:03.929Z,9.00
2023-05-02T22:44:05.532Z,8.35
2023-05-02T22:49:10.235Z,7.07
2023-05-02T22:54:11.637Z,7.53
2023-05-02T22:59:12.956Z,8.73
2023-05-02T23:04:14.888Z,13.20
2023-05-02T23:09:16.277Z,9.77
2023-05-02T23:14:20.511Z,11.57
2023-05-02T23:19:21.821Z,8.27
2023-05-02T23:24:23.267Z,9.68
2023-05-02T23:29:25.618Z,6.75
2023-05-02T23:34:27.089Z,7.80
2023-05-02T23:39:28.495Z,12.27
2023-05-02T23:44:30.581Z,13.05
2023-05-02T23:49:32.056Z,10.63
2023-05-02T23:54:34.819Z,6.50
2023-05-02T23:59:36.126Z,10.65
